Terminal Aerodrome Forecast
Issued by NWS

Home | Current Version | Previous Version | Text Only | Print | Product List | Glossary On
Versions: 1 2 3 4 5 6 7 8 9 10 11 12
000
FTUS43 KSGF 291100
TAFBBG
TAF
KBBG 291120Z 2912/3012 26005KT P6SM SCT250
     FM292000 35007KT P6SM VCSH SCT040 SCT250 PROB30 2921/2924 P6SM
      -TSRA BKN040CB
     FM300000 02006KT P6SM SKC=

USA.gov is the U.S. government's official web portal to all federal, state and local government web resources and services.